Flight Track Log - Related Links

Times and Time Zones

All times are in EST time to prevent confusion due to time zone crossing. See the AAL180 flight status page for this flight to view local times or setup timezone preferences in your user account.

Time Position Orientation Groundspeed Altitude Reporting Facility
EST Latitude Longitude Course Direction KTS MPH feet Rate Location/Type
Wed 07:45:17 PM 33.9359 -118.4177 263° West 161 185 1,000  Level FlightAware ADS-B
Wed 07:45:39 PM 33.9344 -118.4385 267° West 168 193 1,600 1,395 Climbing FlightAware ADS-B
Wed 07:46:00 PM 33.9332 -118.4586 265° West 190 219 2,000 1,615 Climbing FlightAware ADS-B
Wed 07:46:05 PM 33.9315 -118.4677 256° West 199 229 2,300 1,680 Climbing FlightAware ADS-B
Wed 07:46:25 PM 33.9251 -118.4920 252° West 229 264 2,700 1,286 Climbing FlightAware ADS-B
Wed 07:46:47 PM 33.9205 -118.5092 252° West 252 290 3,200 2,000 Climbing FlightAware ADS-B
Wed 07:47:07 PM 33.9106 -118.5439 250° West 270 311 4,100 3,286 Climbing FlightAware ADS-B
Wed 07:47:29 PM 33.9017 -118.5682 224° Southwest 262 302 5,500 3,667 Climbing FlightAware ADS-B
Wed 07:47:43 PM 33.8831 -118.5851 199° South 264 304 6,300 3,000 Climbing FlightAware ADS-B
Wed 07:48:11 PM 33.8477 -118.5808 155° Southeast 281 323 7,600 2,571 Climbing FlightAware ADS-B
Wed 07:48:25 PM 33.8356 -118.5690 125° Southeast 292 336 8,100 2,700 Climbing FlightAware ADS-B
Wed 07:48:31 PM 33.8302 -118.5584 117° Southeast 295 339 8,500 2,455 Climbing FlightAware ADS-B
Wed 07:48:47 PM 33.8266 -118.5309 86° East 313 360 9,000 1,969 Climbing FlightAware ADS-B
Wed 07:49:35 PM 33.8731 -118.4717 27° Northeast 329 379 10,600 1,888 Climbing FlightAware ADS-B
Wed 07:50:16 PM 33.9254 -118.4387 33° Northeast 355 409 11,800 1,714 Climbing FlightAware ADS-B
Wed 07:50:31 PM 33.9465 -118.4167 51° Northeast 368 423 12,200 1,895 Climbing FlightAware ADS-B
Wed 07:50:54 PM 33.9653 -118.3796 61° Northeast 380 437 13,000 1,727 Climbing FlightAware ADS-B
Wed 07:51:37 PM 34.0054 -118.3004 57° Northeast 399 459 14,100 1,841 Climbing FlightAware ADS-B
Wed 07:52:22 PM 34.0596 -118.2109 55° Northeast 422 486 15,700 2,764 Climbing FlightAware ADS-B
Wed 07:53:06 PM 34.1092 -118.1228 56° Northeast 404 465 18,200 3,181 Climbing FlightAware ADS-B
Wed 07:53:45 PM 34.1495 -118.0520 55° Northeast 390 449 20,100 2,304 Climbing FlightAware ADS-B
Wed 07:54:58 PM 34.2222 -117.9212 56° Northeast 393 452 22,500 1,385 Climbing FlightAware ADS-B
Wed 07:56:08 PM 34.2928 -117.7947 56° Northeast 433 498 23,400 850 Climbing FlightAware ADS-B
Wed 07:59:12 PM 34.5170 -117.3985 56° Northeast 483 556 26,100 927 Climbing FlightAware ADS-B
Wed 07:59:48 PM 34.5689 -117.3264 49° Northeast 488 562 26,800 1,111 Climbing FlightAware ADS-B
Wed 08:00:33 PM 34.6455 -117.2194 49° Northeast 496 571 27,600 1,091 Climbing FlightAware ADS-B
Wed 08:01:27 PM 34.7260 -117.1068 49° Northeast 496 571 28,600 1,200 Climbing FlightAware ADS-B
Wed 08:02:03 PM 34.7804 -117.0305 49° Northeast 492 566 29,400 1,188 Climbing FlightAware ADS-B
Wed 08:03:03 PM 34.8615 -116.9171 49° Northeast 491 565 30,500 897 Climbing FlightAware ADS-B
Wed 08:03:50 PM 34.9392 -116.8073 49° Northeast 497 572 31,000 353 Climbing FlightAware ADS-B
Wed 08:04:28 PM 34.9813 -116.7483 49° Northeast 500 575 31,000 350 Level FlightAware ADS-B
Wed 08:06:07 PM 35.1458 -116.5149 50° Northeast 502 578 31,800 578 Climbing FlightAware ADS-B (EPLL / LCJ)
Wed 08:07:14 PM 35.2506 -116.3653 50° Northeast 518 596 32,600 720 Climbing FlightAware ADS-B (EPLL / LCJ)
Wed 08:07:47 PM 35.2997 -116.2947 50° Northeast 501 577 33,000 242 Climbing FlightAware ADS-B (EPLL / LCJ)
Wed 08:08:53 PM 35.3992 -116.1523 50° Northeast 502 578 33,000  Level FlightAware ADS-B (EPLL / LCJ)
Wed 08:09:59 PM 35.4991 -116.0084 50° Northeast 497 572 33,000  Level FlightAware ADS-B (EPLL / LCJ)
Wed 08:10:33 PM 35.5488 -115.9365 50° Northeast 496 571 33,000  Level FlightAware ADS-B (EPLL / LCJ)
Wed 08:11:45 PM 35.6551 -115.7827 51° Northeast 488 562 33,000  Level FlightAware ADS-B (EPLL / LCJ)
Wed 08:12:51 PM 35.7525 -115.6410 51° Northeast 485 558 33,000  Level FlightAware ADS-B (EPLL / LCJ)
Wed 08:13:57 PM 35.8481 -115.5012 51° Northeast 479 551 33,000  Level FlightAware ADS-B (EPLL / LCJ)
Wed 08:14:29 PM 35.8937 -115.4341 51° Northeast 485 558 33,000  Level FlightAware ADS-B (EPLL / LCJ)
Wed 08:15:01 PM 35.9414 -115.3640 51° Northeast 488 562 33,000  Level FlightAware ADS-B (EPLL / LCJ)
Wed 08:15:35 PM 35.9911 -115.2912 51° Northeast 485 558 33,000  Level FlightAware ADS-B (EPLL / LCJ)
Wed 08:16:12 PM 36.0436 -115.2137 51° Northeast 487 560 33,000  Level FlightAware ADS-B (EPLL / LCJ)
Wed 08:17:17 PM 36.1263 -115.0610 61° Northeast 495 570 33,000  Level FlightAware ADS-B (EPLL / LCJ)
Wed 08:17:50 PM 36.1647 -114.9795 61° Northeast 493 567 33,000  Level FlightAware ADS-B (EPLL / LCJ)
Wed 08:18:23 PM 36.2033 -114.8972 61° Northeast 489 563 33,000  Level FlightAware ADS-B (EPLL / LCJ)
Wed 08:19:28 PM 36.2766 -114.7395 60° Northeast 493 567 33,000  Level FlightAware ADS-B (EPLL / LCJ)
Wed 08:20:08 PM 36.3222 -114.6416 60° Northeast 493 567 33,000  Level FlightAware ADS-B (EPLL / LCJ)
Wed 08:20:41 PM 36.3605 -114.5590 60° Northeast 497 572 33,000  Level FlightAware ADS-B (EPLL / LCJ)
Wed 08:21:48 PM 36.4366 -114.3938 61° Northeast 494 568 33,000  Level FlightAware ADS-B (EPLL / LCJ)
Wed 08:22:55 PM 36.5117 -114.2309 60° Northeast 496 571 33,000  Level FlightAware ADS-B (EPLL / LCJ)
Wed 08:23:26 PM 36.5474 -114.1532 60° Northeast 494 568 33,000  Level FlightAware ADS-B (EPLL / LCJ)
Wed 08:24:01 PM 36.5867 -114.0668 61° Northeast 491 565 33,000  Level FlightAware ADS-B (EPLL / LCJ)
Wed 08:24:32 PM 36.6213 -113.9910 61° Northeast 495 570 33,000  Level FlightAware ADS-B (EPLL / LCJ)
Wed 08:25:06 PM 36.6599 -113.9060 61° Northeast 493 567 33,000  Level FlightAware ADS-B (EPLL / LCJ)
Wed 08:25:39 PM 36.6967 -113.8243 61° Northeast 496 571 33,000  Level FlightAware ADS-B (EPLL / LCJ)
Wed 08:26:12 PM 36.7336 -113.7424 62° Northeast 481 554 33,000  Level FlightAware ADS-B (EPLL / LCJ)
Wed 08:26:45 PM 36.7689 -113.6641 62° Northeast 477 549 33,000  Level FlightAware ADS-B (EPLL / LCJ)
Wed 08:27:24 PM 36.8118 -113.5689 61° Northeast 485 558 33,000  Level FlightAware ADS-B
Wed 08:28:25 PM 36.8798 -113.4174 61° Northeast 488 562 33,000  Level FlightAware ADS-B
Wed 08:29:29 PM 36.9464 -113.2687 61° Northeast 489 563 33,000  Level FlightAware ADS-B
Wed 08:30:31 PM 37.0173 -113.1087 61° Northeast 490 564 33,000  Level FlightAware ADS-B
Wed 08:31:16 PM 37.0673 -112.9959 62° Northeast 489 563 33,000  Level FlightAware ADS-B (EPLL / LCJ)
Wed 08:31:49 PM 37.1027 -112.9153 62° Northeast 487 560 33,000  Level FlightAware ADS-B (EPLL / LCJ)
Wed 08:32:34 PM 37.1501 -112.8075 61° Northeast 490 564 33,000  Level FlightAware ADS-B
Wed 08:33:27 PM 37.2100 -112.6707 62° Northeast 484 557 33,000  Level FlightAware ADS-B (EPLL / LCJ)
Wed 08:34:36 PM 37.2846 -112.4995 62° Northeast 485 558 33,000  Level FlightAware ADS-B (EPLL / LCJ)
Wed 08:35:11 PM 37.3231 -112.4115 62° Northeast 487 560 33,000  Level FlightAware ADS-B (EPLL / LCJ)
Wed 08:35:43 PM 37.3569 -112.3332 62° Northeast 488 562 33,000  Level FlightAware ADS-B (EPLL / LCJ)
Wed 08:36:46 PM 37.4259 -112.1729 62° Northeast 491 565 33,000  Level FlightAware ADS-B
Wed 08:37:22 PM 37.4634 -112.0859 63° Northeast 485 558 33,000  Level FlightAware ADS-B (EPLL / LCJ)
Wed 08:37:57 PM 37.5018 -111.9983 60° Northeast 484 557 33,000  Level FlightAware ADS-B (EPLL / LCJ)
Wed 08:38:49 PM 37.5650 -111.8743 57° Northeast 490 564 33,000  Level FlightAware ADS-B
Wed 08:39:50 PM 37.6397 -111.7284 57° Northeast 479 551 33,000  Level FlightAware ADS-B
Wed 08:41:56 PM 37.7905 -111.4321 58° Northeast 482 555 33,000  Level FlightAware ADS-B
Wed 08:43:01 PM 37.8647 -111.2854 58° Northeast 482 555 33,000  Level FlightAware ADS-B
Wed 08:44:04 PM 37.9430 -111.1292 58° Northeast 482 555 33,000  Level FlightAware ADS-B
Wed 08:45:06 PM 38.0176 -110.9805 58° Northeast 484 557 33,000  Level FlightAware ADS-B
Wed 08:46:13 PM 38.0980 -110.8192 58° Northeast 485 558 33,000  Level FlightAware ADS-B (KGUC)
Wed 08:47:04 PM 38.1588 -110.6969 58° Northeast 485 558 33,000  Level FlightAware ADS-B (KGUC)
Wed 08:47:34 PM 38.1897 -110.6341 58° Northeast 485 558 33,000  Level FlightAware ADS-B (KGUC)
Wed 08:48:04 PM 38.2291 -110.5542 58° Northeast 483 556 33,000  Level FlightAware ADS-B
Wed 08:48:43 PM 38.2762 -110.4587 58° Northeast 478 550 33,000  Level FlightAware ADS-B
Wed 08:49:13 PM 38.3120 -110.3862 58° Northeast 479 551 33,000  Level FlightAware ADS-B
Wed 08:49:54 PM 38.3590 -110.2900 58° Northeast 478 550 33,000  Level FlightAware ADS-B
Wed 08:50:25 PM 38.3939 -110.2185 58° Northeast 477 549 33,000  Level FlightAware ADS-B
Wed 08:51:03 PM 38.4396 -110.1251 58° Northeast 479 551 33,000  Level FlightAware ADS-B (KGUC)
Wed 08:51:37 PM 38.4798 -110.0423 58° Northeast 480 552 33,000  Level FlightAware ADS-B
Wed 08:52:04 PM 38.5083 -109.9791 62° Northeast 479 551 33,000  Level FlightAware ADS-B
Wed 08:52:11 PM 38.5158 -109.9603 62° Northeast 479 551 33,000  Level FlightAware ADS-B
Wed 08:52:45 PM 38.5489 -109.8759 63° Northeast 476 548 33,000  Level FlightAware ADS-B (KGUC)
Wed 08:53:20 PM 38.5828 -109.7888 63° Northeast 479 551 33,000  Level FlightAware ADS-B
Wed 08:53:55 PM 38.6185 -109.6975 64° Northeast 479 551 33,000  Level FlightAware ADS-B (KGUC)
Wed 08:54:35 PM 38.6576 -109.5971 64° Northeast 475 547 33,000  Level FlightAware ADS-B (KGUC)
Wed 08:55:05 PM 38.6866 -109.5222 64° Northeast 476 548 33,000  Level FlightAware ADS-B (KGUC)
Wed 08:55:35 PM 38.7165 -109.4448 64° Northeast 477 549 33,000  Level FlightAware ADS-B (KGUC)
Wed 08:56:05 PM 38.7449 -109.3712 64° Northeast 473 544 33,000  Level FlightAware ADS-B (KGUC)
Wed 08:56:45 PM 38.7842 -109.2693 64° Northeast 475 547 33,000  Level FlightAware ADS-B (KGUC)
Wed 08:57:15 PM 38.8129 -109.1945 64° Northeast 473 544 33,000  Level FlightAware ADS-B (KGUC)
Wed 08:57:45 PM 38.8414 -109.1199 64° Northeast 478 550 33,000  Level FlightAware ADS-B (KGUC)
Wed 08:58:15 PM 38.8711 -109.0419 64° Northeast 479 551 33,000  Level FlightAware ADS-B (KGUC)
Wed 08:58:45 PM 38.8993 -108.9678 64° Northeast 476 548 33,000  Level FlightAware ADS-B (KGUC)
Wed 08:59:15 PM 38.9291 -108.8899 64° Northeast 475 547 33,000  Level FlightAware ADS-B (KGUC)
Wed 08:59:45 PM 38.9573 -108.8152 64° Northeast 475 547 33,000  Level FlightAware ADS-B (KGUC)
Wed 09:00:15 PM 38.9857 -108.7401 64° Northeast 475 547 33,000  Level FlightAware ADS-B (KGUC)
Wed 09:00:45 PM 39.0147 -108.6632 64° Northeast 473 544 33,000  Level FlightAware ADS-B (KGUC)
Wed 09:01:15 PM 39.0438 -108.5861 64° Northeast 472 543 33,000  Level FlightAware ADS-B (KGUC)
Wed 09:01:55 PM 39.0804 -108.4882 64° Northeast 474 545 33,000  Level FlightAware ADS-B
Wed 09:02:25 PM 39.1094 -108.4103 65° Northeast 473 544 33,000  Level FlightAware ADS-B
Wed 09:02:55 PM 39.1371 -108.3361 64° Northeast 475 547 33,000  Level FlightAware ADS-B (KGUC)
Wed 09:03:25 PM 39.1662 -108.2583 65° Northeast 474 545 33,000  Level FlightAware ADS-B (KGUC)
Wed 09:03:55 PM 39.1908 -108.1914 65° Northeast 478 550 33,000  Level FlightAware ADS-B (KGUC)
Wed 09:04:25 PM 39.2218 -108.1076 65° Northeast 479 551 33,000  Level FlightAware ADS-B (KGUC)
Wed 09:04:55 PM 39.2517 -108.0269 65° Northeast 476 548 33,000  Level FlightAware ADS-B (KGUC)
Wed 09:05:25 PM 39.2782 -107.9547 65° Northeast 476 548 33,000  Level FlightAware ADS-B (KGUC)
Wed 09:05:55 PM 39.3081 -107.8735 65° Northeast 478 550 33,000  Level FlightAware ADS-B (KGUC)
Wed 09:06:25 PM 39.3368 -107.7951 65° Northeast 478 550 33,000  Level FlightAware ADS-B (KGUC)
Wed 09:07:04 PM 39.3721 -107.6982 65° Northeast 481 554 33,000  Level FlightAware ADS-B (KGUC)
Wed 09:07:35 PM 39.4011 -107.6187 65° Northeast 481 554 33,000  Level FlightAware ADS-B (KGUC)
Wed 09:08:06 PM 39.4318 -107.5341 65° Northeast 478 550 33,000  Level FlightAware ADS-B
Wed 09:08:37 PM 39.4600 -107.4566 65° Northeast 476 548 33,000  Level FlightAware ADS-B
Wed 09:09:09 PM 39.4888 -107.3766 65° Northeast 478 550 33,000  Level FlightAware ADS-B
Wed 09:09:39 PM 39.5172 -107.2974 65° Northeast 477 549 33,000  Level FlightAware ADS-B
Wed 09:10:09 PM 39.5445 -107.2217 65° Northeast 479 551 33,000  Level FlightAware ADS-B
Wed 09:10:39 PM 39.5738 -107.1396 65° Northeast 480 552 33,000  Level FlightAware ADS-B
Wed 09:11:09 PM 39.6018 -107.0612 65° Northeast 479 551 33,000  Level FlightAware ADS-B (EGHH / BOH)
Wed 09:12:09 PM 39.6513 -106.9225 65° Northeast 481 554 33,000  Level FlightAware ADS-B (EGHH / BOH)
Wed 09:12:37 PM 39.6836 -106.8314 66° East 482 555 33,000  Level FlightAware ADS-B (EGHH / BOH)
Wed 09:13:09 PM 39.7133 -106.7470 66° East 482 555 33,000  Level FlightAware ADS-B
Wed 09:13:48 PM 39.7456 -106.6556 66° East 481 554 33,000  Level FlightAware ADS-B
Wed 09:14:19 PM 39.7765 -106.5674 66° East 480 552 33,000  Level FlightAware ADS-B (EGHH / BOH)
Wed 09:14:49 PM 39.8032 -106.4831 69° East 484 557 33,000  Level FlightAware ADS-B
Wed 09:15:19 PM 39.8269 -106.4027 69° East 483 556 33,000  Level FlightAware ADS-B
Wed 09:15:49 PM 39.8498 -106.3243 69° East 484 557 33,000  Level FlightAware ADS-B
Wed 09:16:22 PM 39.8739 -106.2421 69° East 481 554 33,000  Level FlightAware ADS-B (EGHH / BOH)
Wed 09:17:02 PM 39.9076 -106.1261 69° East 481 554 33,000  Level FlightAware ADS-B (EGHH / BOH)
Wed 09:17:13 PM 39.9155 -106.0988 69° East 482 555 33,000  Level FlightAware ADS-B
Wed 09:17:50 PM 39.9461 -105.9933 69° East 480 552 33,000  Level FlightAware ADS-B
Wed 09:18:26 PM 39.9729 -105.9006 70° East 480 552 33,000  Level FlightAware ADS-B
Wed 09:18:56 PM 39.9973 -105.8152 70° East 478 550 33,000  Level FlightAware ADS-B (EGHH / BOH)
Wed 09:19:28 PM 40.0221 -105.7287 70° East 476 548 33,000  Level FlightAware ADS-B (EGHH / BOH)
Wed 09:20:08 PM 40.0508 -105.6280 70° East 476 548 33,000  Level FlightAware ADS-B (EGHH / BOH)
Wed 09:20:39 PM 40.0762 -105.5394 70° East 484 557 33,000  Level FlightAware ADS-B
Wed 09:21:19 PM 40.0889 -105.4942 70° East 482 555 33,000  Level FlightAware ADS-B
Wed 09:21:53 PM 40.1333 -105.3370 70° East 486 559 33,000  Level FlightAware ADS-B (EGHH / BOH)
Wed 09:22:24 PM 40.1537 -105.2647 70° East 483 556 33,000  Level FlightAware ADS-B (EGHH / BOH)
Wed 09:23:04 PM 40.1877 -105.1436 70° East 483 556 33,000  Level FlightAware ADS-B (EGHH / BOH)
Wed 09:23:36 PM 40.2071 -105.0739 70° East 483 556 33,000  Level FlightAware ADS-B (EGHH / BOH)
Wed 09:24:06 PM 40.2339 -104.9777 70° East 483 556 33,000  Level FlightAware ADS-B (EGHH / BOH)
Wed 09:24:36 PM 40.2565 -104.8964 70° East 483 556 33,000  Level FlightAware ADS-B (EGHH / BOH)
Wed 09:25:13 PM 40.2851 -104.7924 70° East 485 558 33,000  Level FlightAware ADS-B
Wed 09:25:45 PM 40.3089 -104.7062 70° East 484 557 33,000  Level FlightAware ADS-B
Wed 09:26:19 PM 40.3367 -104.6053 70° East 485 558 33,000  Level FlightAware ADS-B (EGHH / BOH)
Wed 09:26:50 PM 40.3597 -104.5206 70° East 484 557 33,000  Level FlightAware ADS-B (EGHH / BOH)
Wed 09:27:20 PM 40.3816 -104.4401 70° East 483 556 33,000  Level FlightAware ADS-B (EGHH / BOH)
Wed 09:27:51 PM 40.4050 -104.3542 70° East 484 557 33,000  Level FlightAware ADS-B (EGHH / BOH)
Wed 09:28:34 PM 40.4355 -104.2416 71° East 486 559 33,000  Level FlightAware ADS-B (EGHH / BOH)
Wed 09:29:05 PM 40.4592 -104.1535 71° East 489 563 33,000  Level FlightAware ADS-B
Wed 09:29:48 PM 40.4908 -104.0349 71° East 488 562 33,000  Level FlightAware ADS-B (EGHH / BOH)
Wed 09:30:19 PM 40.5159 -103.9400 71° East 486 559 33,000  Level FlightAware ADS-B (EGHH / BOH)
Wed 09:30:51 PM 40.5394 -103.8493 71° East 486 559 33,000  Level FlightAware ADS-B (EGHH / BOH)
Wed 09:31:21 PM 40.5598 -103.7704 71° East 485 558 33,000  Level FlightAware ADS-B (EGHH / BOH)
Wed 09:31:52 PM 40.5816 -103.6855 71° East 485 558 33,000  Level FlightAware ADS-B (EGHH / BOH)
Wed 09:32:23 PM 40.6019 -103.6065 71° East 483 556 33,000  Level FlightAware ADS-B
Wed 09:32:54 PM 40.6251 -103.5159 71° East 486 559 33,000  Level FlightAware ADS-B (EGHH / BOH)
Wed 09:33:25 PM 40.6487 -103.4234 72° East 485 558 33,000  Level FlightAware ADS-B (EGHH / BOH)
Wed 09:34:02 PM 40.6755 -103.3184 72° East 484 557 33,000  Level FlightAware ADS-B
Wed 09:34:35 PM 40.6973 -103.2317 72° East 485 558 33,000  Level FlightAware ADS-B
Wed 09:35:07 PM 40.7207 -103.1379 72° East 484 557 33,000  Level FlightAware ADS-B (EGHH / BOH)
Wed 09:35:37 PM 40.7420 -103.0532 72° East 484 557 33,000  Level FlightAware ADS-B (EGHH / BOH)
Wed 09:36:07 PM 40.7629 -102.9704 72° East 479 551 33,000  Level FlightAware ADS-B (EGHH / BOH)
Wed 09:36:47 PM 40.7869 -102.8735 72° East 475 547 33,000  Level FlightAware ADS-B (EGHH / BOH)
Wed 09:37:17 PM 40.8081 -102.7883 72° East 474 545 33,000  Level FlightAware ADS-B (EGHH / BOH)
Wed 09:37:52 PM 40.8272 -102.7115 72° East 476 548 33,000  Level FlightAware ADS-B
Wed 09:38:35 PM 40.8585 -102.5834 72° East 475 547 33,000  Level FlightAware ADS-B
Wed 09:39:08 PM 40.8862 -102.4707 72° East 475 547 33,000  Level FlightAware ADS-B (EGHH / BOH)
Wed 09:39:39 PM 40.9056 -102.3912 72° East 477 549 33,000  Level FlightAware ADS-B (EGHH / BOH)
Wed 09:40:11 PM 40.9273 -102.3017 72° East 478 550 33,000  Level FlightAware ADS-B (EGHH / BOH)
Wed 09:40:49 PM 40.9445 -102.2313 72° East 479 551 33,000  Level FlightAware ADS-B
Wed 09:41:24 PM 40.9774 -102.0947 72° East 479 551 33,000  Level FlightAware ADS-B (EGHH / BOH)
Wed 09:41:55 PM 40.9920 -102.0334 72° East 472 543 33,000  Level FlightAware ADS-B
Wed 09:42:11 PM 41.0027 -101.9889 72° East 469 540 33,000  Level FlightAware ADS-B (EGHH / BOH)
Wed 09:42:55 PM 41.0369 -101.8583 71° East 471 542 33,000  Level FlightAware ADS-B (EGHH / BOH)
Wed 09:43:43 PM 41.0740 -101.7151 71° East 474 545 33,000  Level FlightAware ADS-B (EGHH / BOH)
Wed 09:44:46 PM 41.1190 -101.5395 71° East 474 545 33,000  Level FlightAware ADS-B (EGHH / BOH)
Wed 09:45:20 PM 41.1420 -101.4494 71° East 474 545 33,000  Level FlightAware ADS-B (EGHH / BOH)
Wed 09:45:52 PM 41.1623 -101.3699 72° East 475 547 33,000  Level FlightAware ADS-B (EGHH / BOH)
Wed 09:46:33 PM 41.1927 -101.2498 72° East 475 547 33,000  Level FlightAware ADS-B (EGHH / BOH)
Wed 09:47:10 PM 41.2191 -101.1449 72° East 473 544 33,000  Level FlightAware ADS-B (EGHH / BOH)
Wed 09:47:45 PM 41.2427 -101.0509 72° East 474 545 33,000  Level FlightAware ADS-B (EGHH / BOH)
Wed 09:48:27 PM 41.2712 -100.9366 72° East 477 549 33,000  Level FlightAware ADS-B (EGHH / BOH)
Wed 09:49:16 PM 41.3053 -100.7997 72° East 476 548 33,000  Level FlightAware ADS-B (EGHH / BOH)
Wed 09:49:47 PM 41.3272 -100.7112 72° East 475 547 33,000  Level FlightAware ADS-B (EGHH / BOH)
Wed 09:50:25 PM 41.3522 -100.6153 72° East 471 542 33,000  Level Minneapolis Center
Wed 09:51:03 PM 41.3767 -100.5119 72° East 474 545 33,000  Level Denver Center
Wed 09:52:05 PM 41.4153 -100.3525 72° East 472 543 33,000  Level Denver Center
Wed 09:53:06 PM 41.4478 -100.2175 72° East 475 547 33,000  Level Denver Center
Wed 09:54:08 PM 41.4997 -100.0033 72° East 476 548 33,000  Level Denver Center
Wed 09:55:10 PM 41.5464 -99.8161 72° East 475 547 33,000  Level Denver Center
Wed 09:56:12 PM 41.5842 -99.6778 70° East 474 545 33,000  Level Denver Center
Wed 09:57:14 PM 41.6353 -99.4764 71° East 475 547 33,000  Level Denver Center
Wed 09:58:15 PM 41.6775 -99.3083 71° East 474 545 33,000  Level Denver Center
Wed 09:59:17 PM 41.7203 -99.1389 71° East 476 548 33,000  Level Denver Center
Wed 10:00:19 PM 41.7628 -98.9697 71° East 477 549 33,000  Level Denver Center
Wed 10:01:21 PM 41.8047 -98.7989 72° East 478 550 33,000  Level Denver Center
Wed 10:02:23 PM 41.8467 -98.6283 72° East 479 551 33,000  Level Denver Center
Wed 10:03:24 PM 41.8883 -98.4586 72° East 477 549 33,000  Level Denver Center
Wed 10:04:52 PM 41.9511 -98.2022 72° East 477 549 33,000  Level Minneapolis Center
Wed 10:05:53 PM 41.9964 -98.0169 72° East 477 549 33,000  Level Minneapolis Center
Wed 10:06:55 PM 42.0267 -97.8581 76° East 477 549 33,000  Level Minneapolis Center
Wed 10:07:56 PM 42.0578 -97.6806 77° East 484 557 33,000  Level Minneapolis Center
Wed 10:08:58 PM 42.0903 -97.5022 76° East 485 558 33,000  Level Minneapolis Center
Wed 10:09:59 PM 42.1222 -97.3233 76° East 487 560 33,000  Level Minneapolis Center
Wed 10:11:01 PM 42.1542 -97.1439 76° East 488 562 33,000  Level Minneapolis Center
Wed 10:12:02 PM 42.1897 -96.9300 77° East 488 562 33,000  Level Minneapolis Center
Wed 10:13:03 PM 42.2219 -96.7472 77° East 491 565 33,000  Level Minneapolis Center
Wed 10:19:10 PM 42.4068 -95.6265 78° East 501 577 33,000  Level FlightAware ADS-B (LPVM)
Wed 10:24:37 PM 42.4720 -94.6000 88° East 518 596 33,000  Level FlightAware ADS-B
Wed 10:25:12 PM 42.4759 -94.4814 88° East 516 594 33,000  Level FlightAware ADS-B
Wed 10:25:42 PM 42.4769 -94.4515 88° East 518 596 33,000  Level FlightAware ADS-B
Wed 10:26:27 PM 42.4830 -94.2518 88° East 516 594 33,000  Level FlightAware ADS-B
Wed 10:26:57 PM 42.4860 -94.1508 88° East 517 595 33,000  Level FlightAware ADS-B
Wed 10:27:42 PM 42.4904 -93.9931 88° East 519 597 33,000  Level FlightAware ADS-B
Wed 10:28:12 PM 42.4926 -93.9100 88° East 521 600 33,000  Level FlightAware ADS-B
Wed 10:28:42 PM 42.4956 -93.7970 88° East 519 597 33,000  Level FlightAware ADS-B
Wed 10:29:12 PM 42.4972 -93.7329 88° East 521 600 33,000  Level FlightAware ADS-B
Wed 10:29:42 PM 42.5002 -93.6126 88° East 520 598 33,000  Level FlightAware ADS-B
Wed 10:30:27 PM 42.5037 -93.4662 88° East 520 598 33,000  Level FlightAware ADS-B
Wed 10:30:57 PM 42.5057 -93.3790 88° East 520 598 33,000  Level FlightAware ADS-B
Wed 10:31:42 PM 42.5090 -93.2274 88° East 523 602 33,000  Level FlightAware ADS-B
Wed 10:32:12 PM 42.5112 -93.1208 88° East 525 604 33,000  Level FlightAware ADS-B
Wed 10:32:28 PM 42.5122 -93.0687 89° East 526 605 33,000  Level FlightAware ADS-B
Wed 10:33:02 PM 42.5136 -92.9972 89° East 527 606 33,000  Level FlightAware ADS-B
Wed 10:33:39 PM 42.5168 -92.8265 89° East 532 612 33,000  Level FlightAware ADS-B (YPAD / ADL)
Wed 10:34:43 PM 42.5203 -92.6099 89° East 535 616 33,000  Level FlightAware ADS-B (YPAD / ADL)
Wed 10:35:24 PM 42.5224 -92.4756 89° East 537 618 33,000  Level FlightAware ADS-B (YPAD / ADL)
Wed 10:36:03 PM 42.5241 -92.3443 89° East 539 620 33,000  Level FlightAware ADS-B (YPAD / ADL)
Wed 10:36:44 PM 42.5259 -92.2038 89° East 540 621 33,000  Level FlightAware ADS-B (YPAD / ADL)
Wed 10:37:25 PM 42.5274 -92.0746 89° East 542 624 33,000  Level FlightAware ADS-B (YPAD / ADL)
Wed 10:38:05 PM 42.5291 -91.9320 89° East 546 628 33,000  Level FlightAware ADS-B (YPAD / ADL)
Wed 10:38:35 PM 42.5300 -91.8304 89° East 548 631 33,000  Level FlightAware ADS-B (LPVM)
Wed 10:39:05 PM 42.5309 -91.7234 89° East 548 631 33,000  Level FlightAware ADS-B (YPAD / ADL)
Wed 10:39:45 PM 42.5317 -91.6017 90° East 549 632 33,000  Level FlightAware ADS-B (YPAD / ADL)
Wed 10:40:24 PM 42.5325 -91.4509 90° East 546 628 33,000  Level FlightAware ADS-B (YPAD / ADL)
Wed 10:40:55 PM 42.5328 -91.3639 90° East 542 624 33,000  Level FlightAware ADS-B (LPVM)
Wed 10:41:25 PM 42.5336 -91.2511 90° East 541 623 33,000  Level FlightAware ADS-B (YPAD / ADL)
Wed 10:41:55 PM 42.5340 -91.1540 90° East 542 624 33,000  Level FlightAware ADS-B (LPVM)
Wed 10:42:25 PM 42.5342 -91.0439 90° East 542 624 33,000  Level FlightAware ADS-B (YPAD / ADL)
Wed 10:43:00 PM 42.5343 -90.9251 90° East 540 621 33,000  Level FlightAware ADS-B
Wed 10:43:34 PM 42.5343 -90.8180 90° East 539 620 33,000  Level FlightAware ADS-B
Wed 10:44:04 PM 42.5343 -90.7167 90° East 540 621 33,000  Level FlightAware ADS-B (YPAD / ADL)
Wed 10:44:38 PM 42.5342 -90.5941 90° East 542 624 33,000  Level FlightAware ADS-B
Wed 10:45:12 PM 42.5339 -90.4760 90° East 542 624 33,000  Level FlightAware ADS-B (LPVM)
Wed 10:46:01 PM 42.5333 -90.3189 90° East 541 623 33,000  Level FlightAware ADS-B
Wed 10:46:42 PM 42.5325 -90.1759 90° East 537 618 33,000  Level FlightAware ADS-B (YPAD / ADL)
Wed 10:47:26 PM 42.5318 -90.0302 91° East 537 618 33,000  Level FlightAware ADS-B
Wed 10:48:01 PM 42.5309 -89.9085 91° East 538 619 33,000  Level FlightAware ADS-B
Wed 10:48:32 PM 42.5301 -89.8072 91° East 541 623 33,000  Level FlightAware ADS-B
Wed 10:49:02 PM 42.5291 -89.7035 91° East 541 623 33,000  Level FlightAware ADS-B
Wed 10:49:35 PM 42.5278 -89.5891 91° East 542 624 33,000  Level FlightAware ADS-B
Wed 10:50:06 PM 42.5268 -89.4872 91° East 543 625 33,000  Level FlightAware ADS-B
Wed 10:50:36 PM 42.5256 -89.3897 91° East 542 624 33,000  Level FlightAware ADS-B
Wed 10:51:09 PM 42.5241 -89.2773 91° East 544 626 33,000  Level FlightAware ADS-B
Wed 10:51:39 PM 42.5228 -89.1728 91° East 545 627 33,000  Level FlightAware ADS-B
Wed 10:52:13 PM 42.5212 -89.0582 91° East 545 627 33,000  Level FlightAware ADS-B
Wed 10:52:43 PM 42.5197 -88.9571 91° East 544 626 33,000  Level FlightAware ADS-B
Wed 10:53:17 PM 42.5175 -88.8372 91° East 545 627 33,000  Level FlightAware ADS-B
Wed 10:53:48 PM 42.5171 -88.8163 92° East 546 628 33,000  Level FlightAware ADS-B (KMSN)
Wed 10:54:21 PM 42.5136 -88.6217 91° East 546 628 33,000  Level FlightAware ADS-B
Wed 10:54:30 PM 42.5129 -88.5883 91° East 547 629 33,000  Level FlightAware ADS-B (KMSN)
Wed 10:55:02 PM 42.5112 -88.5038 92° East 546 628 33,000  Level FlightAware ADS-B
Wed 10:55:33 PM 42.5089 -88.3894 92° East 545 627 33,000  Level FlightAware ADS-B (KMSN)
Wed 10:56:16 PM 42.5055 -88.2350 92° East 547 629 33,000  Level FlightAware ADS-B
Wed 10:56:48 PM 42.5029 -88.1216 92° East 546 628 33,000  Level FlightAware ADS-B
Wed 10:57:23 PM 42.5001 -88.0057 92° East 547 629 33,000  Level FlightAware ADS-B
Wed 10:57:33 PM 42.4992 -87.9619 91° East 546 628 33,000  Level FlightAware ADS-B
Wed 10:58:03 PM 42.4997 -87.8633 90° East 542 624 33,000  Level FlightAware ADS-B
Wed 10:58:39 PM 42.4999 -87.7417 90° East 542 624 33,000  Level FlightAware ADS-B
Wed 10:59:09 PM 42.4997 -87.6373 90° East 542 624 33,000  Level FlightAware ADS-B
Wed 10:59:42 PM 42.4993 -87.5261 90° East 545 627 33,000  Level FlightAware ADS-B
Wed 10:59:56 PM 42.4989 -87.4779 90° East 544 626 33,000  Level FlightAware ADS-B
Wed 11:00:30 PM 42.4982 -87.3647 90° East 546 628 33,000  Level FlightAware ADS-B
Wed 11:00:43 PM 42.4982 -87.3647 91° East 544 626 33,000  Level FlightAware ADS-B
Wed 11:01:17 PM 42.4974 -87.2030 90° East 545 627 33,000  Level FlightAware ADS-B
Wed 11:01:52 PM 42.4966 -87.0838 91° East 547 629 33,000  Level FlightAware ADS-B
Wed 11:02:23 PM 42.4958 -86.9796 91° East 547 629 33,000  Level FlightAware ADS-B
Wed 11:02:54 PM 42.4948 -86.8715 91° East 549 632 33,000  Level FlightAware ADS-B
Wed 11:03:48 PM 42.4929 -86.6851 91° East 549 632 33,000  Level FlightAware ADS-B
Wed 11:04:19 PM 42.4914 -86.5782 91° East 549 632 33,000  Level FlightAware ADS-B
Wed 11:04:51 PM 42.4902 -86.4753 91° East 549 632 33,000  Level FlightAware ADS-B
Wed 11:05:22 PM 42.4887 -86.3629 91° East 550 633 33,000  Level FlightAware ADS-B
Wed 11:05:55 PM 42.4872 -86.2486 91° East 551 634 33,000  Level FlightAware ADS-B
Wed 11:06:25 PM 42.4861 -86.1828 91° East 550 633 33,000  Level FlightAware ADS-B
Wed 11:07:36 PM 42.4846 -86.0806 92° East 542 624 33,000  Level FlightAware ADS-B
Wed 11:08:45 PM 42.4769 -85.6719 92° East 542 624 33,000  Level FlightAware ADS-B
Wed 11:09:17 PM 42.4748 -85.5652 92° East 544 626 33,000  Level FlightAware ADS-B
Wed 11:09:47 PM 42.4726 -85.4618 92° East 544 626 33,000  Level FlightAware ADS-B
Wed 11:10:21 PM 42.4700 -85.3507 92° East 546 628 33,000  Level FlightAware ADS-B
Wed 11:10:51 PM 42.4677 -85.2480 92° East 547 629 33,000  Level FlightAware ADS-B
Wed 11:11:24 PM 42.4647 -85.1283 92° East 547 629 33,000  Level FlightAware ADS-B
Wed 11:11:55 PM 42.4619 -85.0226 92° East 543 625 33,000  Level FlightAware ADS-B
Wed 11:12:28 PM 42.4593 -84.9124 92° East 543 625 33,000  Level FlightAware ADS-B
Wed 11:13:04 PM 42.4563 -84.7980 92° East 546 628 33,000  Level FlightAware ADS-B
Wed 11:13:43 PM 42.4527 -84.6655 92° East 545 627 33,000  Level FlightAware ADS-B
Wed 11:14:27 PM 42.4482 -84.5174 93° East 547 629 33,000  Level FlightAware ADS-B
Wed 11:14:57 PM 42.4446 -84.4044 93° East 547 629 33,000  Level FlightAware ADS-B
Wed 11:15:29 PM 42.4412 -84.2948 93° East 548 631 33,000  Level FlightAware ADS-B
Wed 11:16:08 PM 42.4368 -84.1618 93° East 550 633 33,000  Level FlightAware ADS-B
Wed 11:16:44 PM 42.4326 -84.0399 93° East 549 632 33,000  Level FlightAware ADS-B
Wed 11:17:29 PM 42.4287 -83.9263 93° East 549 632 33,000  Level FlightAware ADS-B
Wed 11:18:17 PM 42.4194 -83.7744 95° East 548 631 33,000  Level FlightAware ADS-B
Wed 11:20:32 PM 42.3837 -83.2645 96° East 547 629 33,000  Level FlightAware ADS-B (EPLB / LUZ)
Wed 11:21:28 PM 42.3708 -83.0807 96° East 550 633 33,000  Level FlightAware ADS-B (EPLB / LUZ)
Wed 11:21:48 PM 42.3663 -83.0200 95° East 548 631 33,000  Level FlightAware ADS-B (CYYZ)
Wed 11:22:07 PM 42.3642 -82.9922 96° East 553 636 33,000  Level FlightAware ADS-B (EPLB / LUZ)
Wed 11:22:25 PM 42.3559 -82.8818 95° East 554 638 33,000  Level FlightAware ADS-B (CYYZ)
Wed 11:22:41 PM 42.3552 -82.8724 96° East 552 635 33,000  Level FlightAware ADS-B (EPLB / LUZ)
Wed 11:22:54 PM 42.3481 -82.7776 96° East 551 634 33,000  Level FlightAware ADS-B (CYYZ)
Wed 11:23:23 PM 42.3403 -82.6779 96° East 552 635 33,000  Level FlightAware ADS-B (EPLB / LUZ)
Wed 11:23:24 PM 42.3403 -82.6779 96° East 553 636 33,000  Level FlightAware ADS-B (CYYZ)
Wed 11:23:54 PM 42.3319 -82.5696 96° East 554 638 33,000  Level FlightAware ADS-B (CYYZ)
Wed 11:23:55 PM 42.3319 -82.5696 96° East 553 636 33,000  Level FlightAware ADS-B (EPLB / LUZ)
Wed 11:24:24 PM 42.3242 -82.4705 96° East 551 634 33,000  Level FlightAware ADS-B (CYYZ)
Wed 11:24:35 PM 42.3212 -82.4335 96° East 549 632 33,000  Level FlightAware ADS-B (EPLB / LUZ)
Wed 11:24:55 PM 42.3159 -82.3660 96° East 549 632 33,000  Level FlightAware ADS-B (CYYZ)
Wed 11:25:06 PM 42.3130 -82.3282 96° East 550 633 33,000  Level FlightAware ADS-B (EPLB / LUZ)
Wed 11:25:24 PM 42.3078 -82.2637 96° East 553 636 33,000  Level FlightAware ADS-B (CYYZ)
Wed 11:25:55 PM 42.2994 -82.1582 96° East 557 641 33,000  Level FlightAware ADS-B (CYYZ)
Wed 11:26:16 PM 42.2944 -82.0998 97° East 556 640 33,000  Level FlightAware ADS-B (EPLB / LUZ)
Wed 11:26:24 PM 42.2908 -82.0561 96° East 556 640 33,000  Level FlightAware ADS-B (CYYZ)
Wed 11:26:54 PM 42.2827 -81.9553 96° East 553 636 33,000  Level FlightAware ADS-B (CYYZ)
Wed 11:26:58 PM 42.2816 -81.9422 96° East 551 634 33,000  Level FlightAware ADS-B (EPLB / LUZ)
Wed 11:27:25 PM 42.2740 -81.8523 96° East 548 631 33,000  Level FlightAware ADS-B (CYYZ)
Wed 11:27:54 PM 42.2651 -81.7489 96° East 549 632 33,000  Level FlightAware ADS-B (CYYZ)
Wed 11:28:25 PM 42.2568 -81.6525 96° East 548 631 33,000  Level FlightAware ADS-B (CYYZ)
Wed 11:28:54 PM 42.2477 -81.5481 96° East 545 627 33,000  Level FlightAware ADS-B (CYYZ)
Wed 11:29:24 PM 42.2390 -81.4483 96° East 544 626 33,000  Level FlightAware ADS-B (CYYZ)
Wed 11:29:54 PM 42.2300 -81.3460 96° East 546 628 33,000  Level FlightAware ADS-B (CYYZ)
Wed 11:30:25 PM 42.2207 -81.2426 96° East 544 626 33,000  Level FlightAware ADS-B (CYYZ)
Wed 11:30:54 PM 42.2120 -81.1464 97° East 546 628 33,000  Level FlightAware ADS-B (CYYZ)
Wed 11:31:24 PM 42.2034 -81.0501 96° East 546 628 33,000  Level FlightAware ADS-B (CYYZ)
Wed 11:31:55 PM 42.1935 -80.9419 97° East 549 632 33,000  Level FlightAware ADS-B (CYYZ)
Wed 11:32:23 PM 42.1845 -80.8444 97° East 549 632 33,000  Level FlightAware ADS-B (EPLB / LUZ)
Wed 11:32:24 PM 42.1841 -80.8397 97° East 549 632 33,000  Level FlightAware ADS-B (CYYZ)
Wed 11:32:54 PM 42.1747 -80.7418 97° East 550 633 33,000  Level FlightAware ADS-B (CYYZ)
Wed 11:33:02 PM 42.1721 -80.7139 97° East 549 632 33,000  Level FlightAware ADS-B (EPLB / LUZ)
Wed 11:33:25 PM 42.1647 -80.6377 97° East 544 626 33,000 -231 Level FlightAware ADS-B (CYYZ)
Wed 11:33:54 PM 42.1555 -80.5413 97° East 543 625 32,800 -364 Descending FlightAware ADS-B (CYYZ)
Wed 11:33:58 PM 42.1538 -80.5236 98° East 542 624 32,800 -200 Level FlightAware ADS-B (EPLB / LUZ)
Wed 11:34:24 PM 42.1454 -80.4359 97° East 543 625 32,700 -343 Descending FlightAware ADS-B (CYYZ)
Wed 11:34:33 PM 42.1460 -80.4432 97° East 541 623 32,600 -400 Descending FlightAware ADS-B (EPLB / LUZ)
Wed 11:34:54 PM 42.1360 -80.3378 97° East 543 625 32,500 -400 Descending FlightAware ADS-B (CYYZ)
Wed 11:35:18 PM 42.1300 -80.2763 98° East 543 625 32,300 -400 Descending FlightAware ADS-B (EPLB / LUZ)
Wed 11:35:24 PM 42.1260 -80.2367 97° East 543 625 32,300 -333 Level FlightAware ADS-B (CYYZ)
Wed 11:35:54 PM 42.1160 -80.1356 97° East 543 625 32,100 -222 Descending FlightAware ADS-B (CYYZ)
Wed 11:36:45 PM 42.0992 -79.9678 97° East 545 627 32,000 -74 Descending FlightAware ADS-B (CYYZ)
Wed 11:37:15 PM 42.0894 -79.8706 97° East 542 624 32,000  Level FlightAware ADS-B (CYYZ)
Wed 11:37:44 PM 42.0791 -79.7707 98° East 537 618 32,000  Level FlightAware ADS-B (CYYZ)
Wed 11:37:49 PM 42.0776 -79.7568 97° East 535 616 32,000  Level FlightAware ADS-B (EPLB / LUZ)
Wed 11:38:14 PM 42.0687 -79.6704 98° East 537 618 32,000  Level FlightAware ADS-B (CYYZ)
Wed 11:38:28 PM 42.0640 -79.6254 98° East 538 619 32,000  Level FlightAware ADS-B (EPLB / LUZ)
Wed 11:38:44 PM 42.0584 -79.5720 98° East 539 620 32,000  Level FlightAware ADS-B (CYYZ)
Wed 11:39:14 PM 42.0482 -79.4757 98° East 539 620 32,000  Level FlightAware ADS-B (CYYZ)
Wed 11:39:18 PM 42.0496 -79.4883 98° East 538 619 32,000  Level FlightAware ADS-B (EPLB / LUZ)
Wed 11:39:45 PM 42.0377 -79.3737 98° East 539 620 32,000  Level FlightAware ADS-B (CYYZ)
Wed 11:39:58 PM 42.0347 -79.3468 98° East 538 619 32,000  Level FlightAware ADS-B (EPLB / LUZ)
Wed 11:40:14 PM 42.0271 -79.2763 98° East 537 618 32,000  Level FlightAware ADS-B (CYYZ)
Wed 11:40:33 PM 42.0206 -79.2158 98° East 536 617 32,000  Level FlightAware ADS-B (EPLB / LUZ)
Wed 11:40:45 PM 42.0161 -79.1742 98° East 538 619 32,000  Level FlightAware ADS-B (CYYZ)
Wed 11:41:03 PM 42.0110 -79.1279 98° East 541 623 32,000  Level FlightAware ADS-B (EPLB / LUZ)
Wed 11:41:14 PM 42.0060 -79.0817 98° East 541 623 32,000  Level FlightAware ADS-B (CYYZ)
Wed 11:41:45 PM 41.9946 -78.9792 98° East 538 619 32,000  Level FlightAware ADS-B (CYYZ)
Wed 11:42:15 PM 41.9836 -78.8785 98° East 536 617 32,000  Level FlightAware ADS-B (CYYZ)
Wed 11:42:44 PM 41.9724 -78.7800 99° East 536 617 32,000  Level FlightAware ADS-B (CYYZ)
Wed 11:43:40 PM 41.9435 -78.6065 103° East 533 613 32,000  Level FlightAware ADS-B (CYYZ)
Wed 11:44:10 PM 41.9267 -78.5099 103° East 533 613 32,000  Level FlightAware ADS-B (CYYZ)
Wed 11:44:39 PM 41.9090 -78.4096 103° East 534 615 32,000  Level FlightAware ADS-B (CYYZ)
Wed 11:45:09 PM 41.8924 -78.3163 103° East 532 612 32,000  Level FlightAware ADS-B (CYYZ)
Wed 11:45:39 PM 41.8750 -78.2189 103° East 531 611 32,000  Level FlightAware ADS-B (CYYZ)
Wed 11:46:09 PM 41.8581 -78.1242 103° East 531 611 32,000  Level FlightAware ADS-B (CYYZ)
Wed 11:46:40 PM 41.8408 -78.0270 103° East 528 608 32,000  Level FlightAware ADS-B (CYYZ)
Wed 11:47:09 PM 41.8232 -77.9306 103° East 528 608 32,000  Level FlightAware ADS-B (CYYZ)
Wed 11:47:39 PM 41.8063 -77.8376 103° East 528 608 32,000  Level FlightAware ADS-B (CYYZ)
Wed 11:48:09 PM 41.7921 -77.7598 103° East 528 608 32,000  Level FlightAware ADS-B (CYYZ)
Wed 11:48:36 PM 41.7752 -77.6680 103° East 527 606 32,000  Level FlightAware ADS-B (CYYZ)
Wed 11:49:30 PM 41.7483 -77.5233 103° East 527 606 32,000  Level Cleveland Center
Wed 11:50:31 PM 41.7100 -77.3225 104° East 527 606 32,000  Level Cleveland Center
Wed 11:51:31 PM 41.6739 -77.1331 104° East 529 609 32,000  Level Cleveland Center
Wed 11:52:32 PM 41.6233 -76.9481 110° East 530 610 32,000  Level Cleveland Center
Wed 11:53:33 PM 41.5658 -76.7381 110° East 525 604 32,000  Level Cleveland Center
Wed 11:54:33 PM 41.5147 -76.5531 110° East 529 609 32,000 -149 Level Cleveland Center
Wed 11:55:34 PM 41.4700 -76.3928 110° East 529 609 31,700 -645 Descending Cleveland Center
Wed 11:56:34 PM 41.4206 -76.2083 110° East 529 609 30,700 -992 Descending Cleveland Center
Wed 11:57:35 PM 41.3692 -76.0283 111° Southeast 527 606 29,700 -992 Descending Cleveland Center
Wed 11:58:41 PM 41.3078 -75.8225 112° Southeast 520 598 28,600 -1,238 Descending New York Center
Wed 11:59:41 PM 41.2569 -75.6447 111° Southeast 515 593 27,100 -1,850 Descending New York Center
Thu 12:00:41 AM 41.2011 -75.4753 114° Southeast 515 593 24,900 -2,050 Descending New York Center
Thu 12:01:41 AM 41.1472 -75.3144 114° Southeast 492 566 23,000 -761 Descending New York Center
Thu 12:07:31 AM 40.9413 -74.3698 98° East 450 518 19,700 -541 Descending FlightAware ADS-B (KSNC)
Thu 12:09:05 AM 40.8829 -74.1406 136° Southeast 405 466 19,000 -768 Descending FlightAware ADS-B (KSNC)
Thu 12:09:36 AM 40.8390 -74.0924 150° Southeast 380 437 18,100 -1,926 Descending FlightAware ADS-B (KSNC)
Thu 12:10:26 AM 40.7705 -74.0515 157° South 356 410 16,400 -2,176 Descending FlightAware ADS-B (KSNC)
Thu 12:11:07 AM 40.7002 -74.0111 156° South 349 402 14,800 -1,939 Descending FlightAware ADS-B (KSNC)
Thu 12:13:10 AM 40.5401 -73.8814 145° Southeast 346 398 11,100 -1,880 Descending FlightAware ADS-B (KSNC)
Thu 12:13:37 AM 40.5257 -73.8346 112° Southeast 314 361 10,100 -2,256 Descending FlightAware ADS-B (KSNC)
Thu 12:15:07 AM 40.4778 -73.6929 115° Southeast 283 326 6,700 -2,081 Descending FlightAware ADS-B (KSNC)
Thu 12:15:41 AM 40.4622 -73.6461 115° Southeast 297 342 5,800 -2,063 Descending New York Center
Thu 12:16:11 AM 40.4667 -73.6000 83° East 275 316 4,500 -1,750 Descending New York TRACON
Thu 12:17:17 AM 40.5500 -73.5833 North 224 258 3,000 -1,100 Descending New York TRACON
Thu 12:18:11 AM 40.5833 -73.6167 323° Northwest 188 216 2,300 -588 Descending New York TRACON
Thu 12:18:59 AM 40.6000 -73.6500 303° West 139 160 2,000 -636 Descending New York TRACON
Thu 12:20:23 AM 40.6167 -73.7167 288° West 135 155 900 -786 Descending New York TRACON

Login

Don't have an account? Register now (free) for customized features, flight alerts, and more!